Time;durP1;ratioP1;P1;durP2;ratioP2;P2;SDS_P1;SDS_P2;PMS_P1;PMS_P2;Temp;Humidity;BMP_temperature;BMP_pressure;BME280_temperature;BME280_humidity;BME280_pressure;Samples;Min_cycle;Max_cycle;Signal;HPM_P1;HPM_P2
2022/02/11 00:01:47;;;;;;;2.63;1.50;;;;;;;;;;5007632;28;20038;-45
2022/02/11 00:07:03;;;;;;;2.65;1.45;;;;;;;;;;5070950;28;20032;-50
2022/02/11 00:09:29;;;;;;;2.95;1.73;;;;;;;;;;5054087;28;20158;-48
2022/02/11 00:11:56;;;;;;;2.38;1.40;;;;;;;;;;5068352;28;20145;-50
2022/02/11 00:14:24;;;;;;;2.35;1.70;;;;;;;;;;5071687;28;20075;-45
2022/02/11 00:16:50;;;;;;;2.85;1.33;;;;;;;;;;5071432;28;20028;-46
2022/02/11 00:19:16;;;;;;;3.10;1.73;;;;;;;;;;5071050;28;20029;-45
2022/02/11 00:21:42;;;;;;;3.92;1.52;;;;;;;;;;5071617;28;20032;-47
2022/02/11 00:24:08;;;;;;;2.67;1.80;;;;;;;;;;5070892;28;20048;-45
2022/02/11 00:26:37;;;;;;;3.08;1.88;;;;;;;;;;5070952;28;20079;-45
2022/02/11 00:34:17;;;;;;;2.45;1.40;;;;;;;;;;5070447;28;20024;-47
2022/02/11 00:36:52;;;;;;;3.63;1.98;;;;;;;;;;5070845;28;20028;-45
2022/02/11 00:40:04;;;;;;;1.85;1.17;;;;;;;;;;5068619;28;20013;-45
2022/02/11 01:04:07;;;;;;;3.00;1.30;;;;;;;;;;5069195;28;20067;-46
2022/02/11 01:06:33;;;;;;;4.05;2.08;;;;;;;;;;5069766;28;20028;-45
2022/02/11 01:08:59;;;;;;;2.58;1.63;;;;;;;;;;5069975;28;20021;-45
2022/02/11 01:11:32;;;;;;;2.70;1.20;;;;;;;;;;5070395;28;20031;-45
2022/02/11 01:13:58;;;;;;;3.15;1.52;;;;;;;;;;5066908;28;20069;-47
2022/02/11 01:16:37;;;;;;;4.10;1.83;;;;;;;;;;5070034;28;20029;-48
2022/02/11 01:19:23;;;;;;;2.80;1.30;;;;;;;;;;5067748;28;20048;-46
2022/02/11 01:22:10;;;;;;;2.35;1.70;;;;;;;;;;5069107;28;20040;-46
2022/02/11 01:25:06;;;;;;;1.60;1.30;;;;;;;;;;5069963;28;20477;-46
2022/02/11 01:27:51;;;;;;;2.50;1.60;;;;;;;;;;5069710;28;20040;-48
2022/02/11 01:37:56;;;;;;;2.08;1.40;;;;;;;;;;5067432;28;20044;-45
2022/02/11 01:46:25;;;;;;;2.10;1.27;;;;;;;;;;5067004;28;20039;-45
2022/02/11 01:51:38;;;;;;;2.15;1.10;;;;;;;;;;5069880;28;20051;-46
2022/02/11 01:54:34;;;;;;;1.80;1.27;;;;;;;;;;5067061;28;20104;-45
2022/02/11 01:57:03;;;;;;;2.35;1.20;;;;;;;;;;5064174;28;20071;-45
2022/02/11 02:02:54;;;;;;;1.73;1.33;;;;;;;;;;5068009;28;20030;-45
2022/02/11 02:14:02;;;;;;;2.13;1.20;;;;;;;;;;5067030;28;20031;-45
2022/02/11 02:56:37;;;;;;;1.20;0.85;;;;;;;;;;5051529;28;20408;-46
2022/02/11 02:59:04;;;;;;;1.73;0.93;;;;;;;;;;5070870;28;20513;-48
2022/02/11 04:53:27;;;;;;;1.00;0.50;;;;;;;;;;5067998;28;20220;-47
2022/02/11 04:55:37;;;;;;;0.80;0.50;;;;;;;;;;5072455;28;20393;-46
2022/02/11 05:00:48;;;;;;;0.95;0.68;;;;;;;;;;5073058;28;20035;-49
2022/02/11 05:03:15;;;;;;;0.95;0.40;;;;;;;;;;5071928;28;20028;-46
2022/02/11 05:05:50;;;;;;;0.45;0.40;;;;;;;;;;5073060;28;20031;-46
2022/02/11 05:08:19;;;;;;;0.77;0.60;;;;;;;;;;5072009;28;20039;-46
2022/02/11 05:10:45;;;;;;;0.85;0.50;;;;;;;;;;5072701;28;20032;-49
2022/02/11 05:13:12;;;;;;;0.55;0.47;;;;;;;;;;5071724;28;20060;-46
2022/02/11 05:15:38;;;;;;;0.45;0.40;;;;;;;;;;5072430;28;20028;-45
2022/02/11 05:18:04;;;;;;;0.70;0.50;;;;;;;;;;5071960;28;20099;-48
2022/02/11 05:20:30;;;;;;;0.65;0.43;;;;;;;;;;5072562;28;20034;-46
2022/02/11 05:22:56;;;;;;;1.15;0.60;;;;;;;;;;5072176;28;20029;-48
2022/02/11 05:25:22;;;;;;;0.60;0.50;;;;;;;;;;5070460;28;20431;-47
2022/02/11 05:27:48;;;;;;;0.43;0.43;;;;;;;;;;5070900;28;20047;-49
2022/02/11 05:30:14;;;;;;;0.43;0.40;;;;;;;;;;5070301;28;20461;-45
2022/02/11 05:32:40;;;;;;;0.50;0.50;;;;;;;;;;5070922;28;20016;-48
2022/02/11 05:35:07;;;;;;;1.63;0.63;;;;;;;;;;5067034;28;20783;-49
2022/02/11 05:37:33;;;;;;;0.80;0.65;;;;;;;;;;5067944;28;20068;-48
2022/02/11 05:39:59;;;;;;;0.75;0.50;;;;;;;;;;5059426;28;20047;-50
2022/02/11 05:42:25;;;;;;;0.47;0.40;;;;;;;;;;5062183;28;20101;-48
2022/02/11 05:44:51;;;;;;;0.52;0.50;;;;;;;;;;5060503;28;20506;-47
2022/02/11 05:47:17;;;;;;;0.70;0.40;;;;;;;;;;5063308;28;20067;-46
2022/02/11 05:49:43;;;;;;;0.68;0.52;;;;;;;;;;5061561;28;20057;-46
2022/02/11 05:52:09;;;;;;;0.75;0.70;;;;;;;;;;5062363;28;20040;-46
2022/02/11 05:54:35;;;;;;;0.50;0.35;;;;;;;;;;5065669;28;20025;-47
2022/02/11 05:57:01;;;;;;;0.40;0.40;;;;;;;;;;5065675;28;20028;-50
2022/02/11 05:59:27;;;;;;;0.35;0.35;;;;;;;;;;5059101;28;20045;-45
2022/02/11 06:01:53;;;;;;;0.82;0.32;;;;;;;;;;5059282;28;20036;-45
2022/02/11 06:04:20;;;;;;;0.95;0.50;;;;;;;;;;5071244;28;20024;-45
2022/02/11 06:06:47;;;;;;;2.20;0.38;;;;;;;;;;5067433;28;20029;-45
2022/02/11 06:09:13;;;;;;;3.45;0.63;;;;;;;;;;5066007;28;20034;-50
2022/02/11 06:11:39;;;;;;;0.50;0.40;;;;;;;;;;5062970;28;21338;-46
2022/02/11 06:14:06;;;;;;;0.77;0.50;;;;;;;;;;5040067;28;20024;-45
2022/02/11 06:16:32;;;;;;;1.33;0.63;;;;;;;;;;5044789;28;20032;-46
2022/02/11 06:18:58;;;;;;;0.77;0.50;;;;;;;;;;5060738;28;20033;-44
2022/02/11 06:21:24;;;;;;;0.30;0.30;;;;;;;;;;5060333;28;20028;-45
2022/02/11 06:23:55;;;;;;;0.75;0.43;;;;;;;;;;5071635;28;20377;-45
2022/02/11 06:26:21;;;;;;;0.98;0.65;;;;;;;;;;5070060;28;20024;-45
2022/02/11 06:28:47;;;;;;;1.17;0.60;;;;;;;;;;5069399;28;20074;-45
2022/02/11 06:31:13;;;;;;;0.45;0.40;;;;;;;;;;5070294;28;20024;-45
2022/02/11 06:33:39;;;;;;;1.20;0.90;;;;;;;;;;5071373;28;20572;-46
2022/02/11 06:36:05;;;;;;;1.38;0.40;;;;;;;;;;5065834;28;20017;-46
2022/02/11 06:38:31;;;;;;;1.50;0.60;;;;;;;;;;5070863;28;20075;-46
2022/02/11 06:40:58;;;;;;;1.27;0.70;;;;;;;;;;5070697;28;20028;-45
2022/02/11 06:43:24;;;;;;;0.73;0.60;;;;;;;;;;5069908;28;20576;-44
2022/02/11 06:45:50;;;;;;;2.42;0.50;;;;;;;;;;5071287;28;20265;-47
2022/02/11 06:48:23;;;;;;;1.10;0.38;;;;;;;;;;5050652;28;20545;-45
2022/02/11 06:50:49;;;;;;;3.15;0.82;;;;;;;;;;5051787;28;20071;-45
2022/02/11 06:53:15;;;;;;;0.40;0.32;;;;;;;;;;5070074;28;20021;-46
2022/02/11 06:55:42;;;;;;;0.88;0.50;;;;;;;;;;5071163;28;20482;-44
2022/02/11 06:58:08;;;;;;;0.93;0.40;;;;;;;;;;5070305;28;20036;-45
2022/02/11 07:00:34;;;;;;;1.08;0.60;;;;;;;;;;5071421;28;20025;-45
2022/02/11 07:03:01;;;;;;;6.93;1.15;;;;;;;;;;5070711;28;20086;-48
2022/02/11 07:05:27;;;;;;;1.80;0.47;;;;;;;;;;5073653;28;20052;-45
2022/02/11 07:07:54;;;;;;;2.40;0.60;;;;;;;;;;5074376;28;20121;-45
2022/02/11 07:10:20;;;;;;;1.10;0.30;;;;;;;;;;5073361;28;20025;-44
2022/02/11 07:12:47;;;;;;;2.20;0.50;;;;;;;;;;5073718;28;20036;-45
2022/02/11 07:15:13;;;;;;;2.47;1.10;;;;;;;;;;5068378;28;20021;-46
2022/02/11 07:17:39;;;;;;;2.40;0.60;;;;;;;;;;5068055;28;20095;-44
2022/02/11 07:20:06;;;;;;;2.75;0.98;;;;;;;;;;5069840;28;20108;-45
2022/02/11 07:22:34;;;;;;;3.67;0.65;;;;;;;;;;5067820;28;20367;-45
2022/02/11 07:25:01;;;;;;;2.15;0.70;;;;;;;;;;5074399;28;20013;-45
2022/02/11 07:27:27;;;;;;;3.22;0.80;;;;;;;;;;5073410;28;20546;-46
2022/02/11 07:29:53;;;;;;;1.55;0.70;;;;;;;;;;5074013;28;20033;-46
2022/02/11 07:32:19;;;;;;;3.75;0.73;;;;;;;;;;5073336;28;20036;-45
2022/02/11 07:34:45;;;;;;;4.78;0.60;;;;;;;;;;5074366;28;20112;-46
2022/02/11 07:37:11;;;;;;;8.05;1.35;;;;;;;;;;5072992;28;20513;-47
2022/02/11 07:39:37;;;;;;;3.95;0.68;;;;;;;;;;5073684;28;20020;-45
2022/02/11 07:42:04;;;;;;;1.38;0.57;;;;;;;;;;5073880;28;20468;-48
2022/02/11 07:44:30;;;;;;;1.20;0.50;;;;;;;;;;5073584;28;20043;-46
2022/02/11 07:46:56;;;;;;;1.73;0.65;;;;;;;;;;5074009;28;20029;-45
2022/02/11 07:49:22;;;;;;;1.80;0.50;;;;;;;;;;5073408;28;20393;-50
2022/02/11 07:51:48;;;;;;;4.10;0.60;;;;;;;;;;5073873;28;20074;-46
2022/02/11 07:54:14;;;;;;;2.10;0.70;;;;;;;;;;5072335;28;20404;-45
2022/02/11 07:56:40;;;;;;;4.53;0.60;;;;;;;;;;5073651;28;20492;-44
2022/02/11 07:59:06;;;;;;;1.15;0.45;;;;;;;;;;5073414;28;20134;-51
2022/02/11 08:01:32;;;;;;;0.65;0.50;;;;;;;;;;5073995;28;20024;-45
2022/02/11 08:03:58;;;;;;;1.20;0.50;;;;;;;;;;5074091;28;20103;-44
2022/02/11 08:06:24;;;;;;;1.60;0.80;;;;;;;;;;5072844;28;20032;-45
2022/02/11 08:08:50;;;;;;;1.73;0.60;;;;;;;;;;5055674;28;20075;-45
2022/02/11 08:11:16;;;;;;;3.60;0.60;;;;;;;;;;5072722;28;20416;-45
2022/02/11 08:13:42;;;;;;;3.35;0.43;;;;;;;;;;5073514;28;20023;-45
2022/02/11 08:16:08;;;;;;;1.85;0.75;;;;;;;;;;5070901;28;20100;-48
2022/02/11 08:18:34;;;;;;;1.40;0.45;;;;;;;;;;5072528;28;20117;-45
2022/02/11 08:21:00;;;;;;;2.85;1.00;;;;;;;;;;5072841;28;20447;-46
2022/02/11 08:23:26;;;;;;;2.83;1.08;;;;;;;;;;5072765;28;20291;-45
2022/02/11 08:25:53;;;;;;;3.67;0.50;;;;;;;;;;5073064;28;20031;-46
2022/02/11 08:28:19;;;;;;;2.13;0.60;;;;;;;;;;5072838;28;20031;-45
2022/02/11 08:30:49;;;;;;;1.42;0.52;;;;;;;;;;5073337;28;20036;-46
2022/02/11 08:33:15;;;;;;;10.52;1.00;;;;;;;;;;5072532;28;20032;-47
2022/02/11 08:35:41;;;;;;;1.33;0.40;;;;;;;;;;5073225;28;20528;-45
2022/02/11 08:38:07;;;;;;;0.77;0.57;;;;;;;;;;5072481;28;20036;-49
2022/02/11 08:40:35;;;;;;;1.42;0.57;;;;;;;;;;5072123;28;20032;-45
2022/02/11 08:43:01;;;;;;;1.05;0.70;;;;;;;;;;5073001;28;20020;-46
2022/02/11 08:45:27;;;;;;;2.85;0.82;;;;;;;;;;5072147;28;20163;-49
2022/02/11 08:47:53;;;;;;;0.95;0.40;;;;;;;;;;5072991;28;20027;-45
2022/02/11 08:50:24;;;;;;;0.68;0.47;;;;;;;;;;5072029;28;20031;-47
2022/02/11 08:52:50;;;;;;;1.95;0.45;;;;;;;;;;5073220;28;20043;-45
2022/02/11 08:55:19;;;;;;;1.15;0.57;;;;;;;;;;5071573;28;20032;-46
2022/02/11 08:57:47;;;;;;;0.63;0.50;;;;;;;;;;5072549;28;20024;-46
2022/02/11 09:00:16;;;;;;;0.63;0.55;;;;;;;;;;5071849;28;20021;-46
2022/02/11 09:02:42;;;;;;;1.52;0.50;;;;;;;;;;5072692;28;20020;-45
2022/02/11 09:05:08;;;;;;;2.30;0.55;;;;;;;;;;5071903;28;20028;-52
2022/02/11 09:07:34;;;;;;;0.47;0.30;;;;;;;;;;5072109;28;20029;-45
2022/02/11 09:10:00;;;;;;;2.03;0.60;;;;;;;;;;5072187;28;20019;-45
2022/02/11 09:12:26;;;;;;;0.82;0.52;;;;;;;;;;5071158;28;20690;-45
2022/02/11 09:14:52;;;;;;;1.25;0.82;;;;;;;;;;5071961;28;20024;-45
2022/02/11 09:17:18;;;;;;;2.17;0.40;;;;;;;;;;5071450;28;20029;-45
2022/02/11 09:19:47;;;;;;;1.30;0.50;;;;;;;;;;5071906;28;20465;-45
2022/02/11 09:22:13;;;;;;;1.92;1.08;;;;;;;;;;5071420;28;20116;-44
2022/02/11 09:24:39;;;;;;;1.25;0.50;;;;;;;;;;5072283;28;20449;-46
2022/02/11 09:27:05;;;;;;;1.02;0.40;;;;;;;;;;5071905;28;20158;-45
2022/02/11 09:29:31;;;;;;;1.23;0.70;;;;;;;;;;5071432;28;20032;-44
2022/02/11 09:31:57;;;;;;;0.60;0.30;;;;;;;;;;5071616;28;20043;-46
2022/02/11 09:34:23;;;;;;;1.27;0.60;;;;;;;;;;5071496;28;20020;-46
2022/02/11 09:36:50;;;;;;;3.65;0.70;;;;;;;;;;5046000;28;20017;-45
2022/02/11 09:39:16;;;;;;;0.63;0.30;;;;;;;;;;5042076;28;20416;-45
2022/02/11 09:41:42;;;;;;;0.50;0.30;;;;;;;;;;5071194;28;20032;-45
2022/02/11 09:44:08;;;;;;;0.98;0.50;;;;;;;;;;5071667;28;20021;-49
2022/02/11 09:46:36;;;;;;;1.50;0.43;;;;;;;;;;5070705;28;20029;-46
2022/02/11 09:49:02;;;;;;;0.98;0.40;;;;;;;;;;5071516;28;20040;-45
2022/02/11 09:51:28;;;;;;;2.25;1.15;;;;;;;;;;5070905;28;20654;-44
2022/02/11 09:53:54;;;;;;;0.95;0.50;;;;;;;;;;5071665;28;20079;-45
2022/02/11 09:56:20;;;;;;;2.42;0.40;;;;;;;;;;5070994;28;20020;-45
2022/02/11 09:58:50;;;;;;;1.85;0.73;;;;;;;;;;5071342;28;20099;-45
2022/02/11 10:01:18;;;;;;;2.25;0.50;;;;;;;;;;5070625;28;20025;-46
2022/02/11 10:03:44;;;;;;;0.47;0.30;;;;;;;;;;5071659;28;20025;-45
2022/02/11 10:06:10;;;;;;;1.90;0.93;;;;;;;;;;5071031;28;20021;-48
2022/02/11 10:08:38;;;;;;;1.20;0.40;;;;;;;;;;5071152;28;20473;-49
2022/02/11 10:11:05;;;;;;;0.77;0.40;;;;;;;;;;5071144;28;20497;-48
2022/02/11 10:13:36;;;;;;;3.15;0.50;;;;;;;;;;5070540;28;20111;-45
2022/02/11 10:16:08;;;;;;;3.20;0.82;;;;;;;;;;5070848;28;20024;-45
2022/02/11 10:18:35;;;;;;;1.35;0.60;;;;;;;;;;5071352;28;20025;-46
2022/02/11 10:21:02;;;;;;;0.40;0.35;;;;;;;;;;5071258;28;20583;-46
2022/02/11 10:23:32;;;;;;;1.77;0.63;;;;;;;;;;5070397;28;20457;-45
2022/02/11 10:26:09;;;;;;;1.00;0.65;;;;;;;;;;5071607;28;20028;-45
2022/02/11 10:28:37;;;;;;;1.27;0.70;;;;;;;;;;5070960;28;20024;-46
2022/02/11 10:31:06;;;;;;;1.77;0.50;;;;;;;;;;5071411;28;20403;-49
2022/02/11 10:33:48;;;;;;;1.33;0.75;;;;;;;;;;5070120;28;20608;-47
2022/02/11 10:36:15;;;;;;;1.75;0.63;;;;;;;;;;5070401;28;20107;-45
2022/02/11 10:38:41;;;;;;;1.25;0.57;;;;;;;;;;5071424;28;20059;-49
2022/02/11 10:41:07;;;;;;;0.50;0.50;;;;;;;;;;5075072;28;20036;-49
2022/02/11 10:43:34;;;;;;;1.67;0.60;;;;;;;;;;5074214;28;20074;-45
2022/02/11 10:46:01;;;;;;;0.63;0.45;;;;;;;;;;5057075;28;20469;-46
2022/02/11 10:48:33;;;;;;;2.00;0.80;;;;;;;;;;5074568;28;20107;-45
2022/02/11 10:51:01;;;;;;;;;;;;;;;;;;5075037;28;20044;-45
2022/02/11 10:53:31;;;;;;;0.57;0.30;;;;;;;;;;5074471;28;19908;-45
2022/02/11 10:55:58;;;;;;;2.13;0.70;;;;;;;;;;5057094;28;20467;-44
2022/02/11 10:58:28;;;;;;;2.45;0.55;;;;;;;;;;5074402;28;20047;-46
2022/02/11 11:00:56;;;;;;;1.30;0.52;;;;;;;;;;5075006;28;20043;-44
2022/02/11 11:03:23;;;;;;;2.05;0.63;;;;;;;;;;5074017;28;20078;-48
2022/02/11 11:05:51;;;;;;;1.15;0.60;;;;;;;;;;5074800;28;20025;-45
2022/02/11 11:08:18;;;;;;;1.02;0.52;;;;;;;;;;5073558;28;20029;-44
2022/02/11 11:10:45;;;;;;;0.75;0.63;;;;;;;;;;5074607;28;20043;-44
2022/02/11 11:13:12;;;;;;;0.30;0.30;;;;;;;;;;5074152;28;20100;-47
2022/02/11 11:15:38;;;;;;;0.57;0.43;;;;;;;;;;5073633;28;20021;-44
2022/02/11 11:18:07;;;;;;;1.38;0.73;;;;;;;;;;5075030;28;20051;-44
2022/02/11 11:20:34;;;;;;;1.45;0.40;;;;;;;;;;5073696;28;20684;-44
2022/02/11 11:23:06;;;;;;;0.85;0.43;;;;;;;;;;5074434;28;20025;-44
2022/02/11 11:25:52;;;;;;;0.77;0.40;;;;;;;;;;5073811;28;20107;-44
2022/02/11 11:28:36;;;;;;;0.55;0.30;;;;;;;;;;5073292;28;20063;-45
2022/02/11 11:31:09;;;;;;;0.98;0.40;;;;;;;;;;5056651;28;20375;-45
2022/02/11 11:33:35;;;;;;;1.00;0.50;;;;;;;;;;5073519;28;20040;-45
2022/02/11 11:36:05;;;;;;;0.88;0.50;;;;;;;;;;5074098;28;20337;-46
2022/02/11 11:38:44;;;;;;;1.38;0.40;;;;;;;;;;5073102;28;20522;-45
2022/02/11 11:41:22;;;;;;;0.68;0.47;;;;;;;;;;5074108;28;20449;-45
2022/02/11 11:43:51;;;;;;;0.57;0.43;;;;;;;;;;5073602;28;20040;-45
2022/02/11 11:46:17;;;;;;;1.15;0.55;;;;;;;;;;5073152;28;20549;-45
2022/02/11 11:49:03;;;;;;;0.98;0.60;;;;;;;;;;5073718;28;20111;-48
2022/02/11 11:51:35;;;;;;;1.27;0.47;;;;;;;;;;5073120;28;20039;-45
2022/02/11 11:54:21;;;;;;;1.40;0.50;;;;;;;;;;5075919;28;20076;-46
2022/02/11 11:56:53;;;;;;;1.58;0.57;;;;;;;;;;5074081;28;20369;-45
2022/02/11 11:59:19;;;;;;;0.45;0.35;;;;;;;;;;5072948;28;20032;-46
2022/02/11 12:02:04;;;;;;;1.92;0.55;;;;;;;;;;5073557;28;20028;-46
2022/02/11 12:04:35;;;;;;;0.88;0.65;;;;;;;;;;5072970;28;20020;-45
2022/02/11 12:07:05;;;;;;;9.95;0.75;;;;;;;;;;5073783;28;20024;-46
2022/02/11 12:09:32;;;;;;;1.23;0.77;;;;;;;;;;5072732;28;20620;-45
2022/02/11 12:12:04;;;;;;;1.42;0.50;;;;;;;;;;5073947;28;20054;-45
2022/02/11 12:14:33;;;;;;;;;;;;;;;;;;5072883;28;20040;-46
2022/02/11 12:17:00;;;;;;;1.63;0.40;;;;;;;;;;5055715;28;19995;-45
2022/02/11 12:19:26;;;;;;;2.08;0.65;;;;;;;;;;5072806;28;20036;-45
2022/02/11 12:21:53;;;;;;;0.85;0.40;;;;;;;;;;5072671;28;20596;-46
2022/02/11 12:27:20;;;;;;;1.65;0.85;;;;;;;;;;5053556;28;20159;-45
2022/02/11 12:29:56;;;;;;;0.95;0.40;;;;;;;;;;5053682;28;20033;-45
2022/02/11 12:32:27;;;;;;;3.00;0.50;;;;;;;;;;5054314;28;20035;-46
2022/02/11 12:34:58;;;;;;;3.03;0.82;;;;;;;;;;5073496;28;20035;-45
2022/02/11 12:37:29;;;;;;;1.43;0.47;;;;;;;;;;5071770;28;20044;-46
2022/02/11 12:40:09;;;;;;;3.47;1.17;;;;;;;;;;5069048;28;20278;-45
2022/02/11 12:42:39;;;;;;;1.08;0.40;;;;;;;;;;5056988;28;20016;-48
2022/02/11 12:45:07;;;;;;;1.80;0.65;;;;;;;;;;5072700;28;20067;-47
2022/02/11 12:47:33;;;;;;;2.85;0.68;;;;;;;;;;5071594;28;20799;-48
2022/02/11 12:50:00;;;;;;;4.28;0.50;;;;;;;;;;5072733;28;20138;-46
2022/02/11 12:52:28;;;;;;;0.52;0.40;;;;;;;;;;5071981;28;20037;-49
2022/02/11 12:55:01;;;;;;;1.25;0.50;;;;;;;;;;5072942;28;20036;-50
2022/02/11 12:57:27;;;;;;;1.38;0.40;;;;;;;;;;5071934;28;20024;-45
2022/02/11 12:59:53;;;;;;;1.08;0.50;;;;;;;;;;5072824;28;20476;-45
2022/02/11 13:02:23;;;;;;;2.30;0.60;;;;;;;;;;5071017;28;20050;-47
2022/02/11 13:05:00;;;;;;;2.95;0.40;;;;;;;;;;5072644;28;20381;-45
2022/02/11 13:07:26;;;;;;;1.65;0.90;;;;;;;;;;5071866;28;20020;-47
2022/02/11 13:09:52;;;;;;;2.65;0.68;;;;;;;;;;5072653;28;20364;-47
2022/02/11 13:12:18;;;;;;;2.60;0.70;;;;;;;;;;5067168;28;20147;-47
2022/02/11 13:14:44;;;;;;;3.08;0.90;;;;;;;;;;5072071;28;20031;-49
2022/02/11 13:17:11;;;;;;;2.45;1.05;;;;;;;;;;5071644;28;20469;-46
2022/02/11 13:19:36;;;;;;;2.40;0.65;;;;;;;;;;5072038;28;20593;-47
2022/02/11 13:22:03;;;;;;;2.55;0.95;;;;;;;;;;5072246;28;20031;-47
2022/02/11 13:24:31;;;;;;;6.38;1.00;;;;;;;;;;5071097;28;20020;-45
2022/02/11 13:26:58;;;;;;;2.92;1.20;;;;;;;;;;5071639;28;20020;-45
2022/02/11 13:29:24;;;;;;;1.80;0.63;;;;;;;;;;5071524;28;20346;-46
2022/02/11 13:31:51;;;;;;;4.15;1.17;;;;;;;;;;5071794;28;20044;-47
2022/02/11 13:34:17;;;;;;;4.15;1.15;;;;;;;;;;5071160;28;20036;-52
2022/02/11 13:36:48;;;;;;;4.22;0.82;;;;;;;;;;5071314;28;20024;-47
2022/02/11 13:39:31;;;;;;;3.83;1.27;;;;;;;;;;5072064;28;20021;-46
2022/02/11 13:41:58;;;;;;;1.52;0.77;;;;;;;;;;5071828;28;20036;-46
2022/02/11 13:44:24;;;;;;;1.65;0.80;;;;;;;;;;5070631;28;20025;-49
2022/02/11 13:46:52;;;;;;;4.82;1.10;;;;;;;;;;5071992;28;20035;-45
2022/02/11 13:49:18;;;;;;;2.47;0.90;;;;;;;;;;5071460;28;20021;-48
2022/02/11 13:53:01;;;;;;;4.00;0.82;;;;;;;;;;5070986;28;20067;-69
2022/02/11 13:54:34;;;;;;;2.58;1.23;;;;;;;;;;5069276;28;20032;-66
2022/02/11 13:57:01;;;;;;;2.22;1.17;;;;;;;;;;5071461;28;20032;-62
2022/02/11 13:59:30;;;;;;;5.28;1.77;;;;;;;;;;5049888;28;20135;-65
2022/02/11 14:02:06;;;;;;;3.28;1.23;;;;;;;;;;5071161;28;20024;-63
2022/02/11 14:04:33;;;;;;;3.10;1.20;;;;;;;;;;5070603;28;20021;-63
2022/02/11 14:07:00;;;;;;;4.15;1.08;;;;;;;;;;5053827;28;20372;-59
2022/02/11 14:09:26;;;;;;;4.25;1.20;;;;;;;;;;5070968;28;20032;-71
2022/02/11 14:11:53;;;;;;;3.83;1.10;;;;;;;;;;5071402;28;20413;-60
2022/02/11 14:14:21;;;;;;;2.28;1.20;;;;;;;;;;5071238;28;20020;-68
2022/02/11 14:16:50;;;;;;;6.20;1.38;;;;;;;;;;5071306;28;20052;-59
2022/02/11 14:19:17;;;;;;;2.63;0.90;;;;;;;;;;5071325;28;20044;-68
2022/02/11 14:21:43;;;;;;;3.25;1.00;;;;;;;;;;5070673;28;20477;-63
2022/02/11 14:24:09;;;;;;;3.13;0.90;;;;;;;;;;5071750;28;20147;-67
2022/02/11 14:26:39;;;;;;;3.38;0.90;;;;;;;;;;5070771;28;20422;-57
2022/02/11 14:29:05;;;;;;;1.20;0.68;;;;;;;;;;5071392;28;20028;-64
2022/02/11 14:31:32;;;;;;;2.92;0.82;;;;;;;;;;5070514;28;20044;-62
2022/02/11 14:33:58;;;;;;;2.83;1.30;;;;;;;;;;5071287;28;20036;-67
2022/02/11 14:36:24;;;;;;;1.58;0.80;;;;;;;;;;5070758;28;20086;-65
2022/02/11 14:38:51;;;;;;;4.40;0.90;;;;;;;;;;5071145;28;20056;-63
2022/02/11 14:44:02;;;;;;;3.70;0.70;;;;;;;;;;5070049;28;20110;-62
2022/02/11 14:46:28;;;;;;;2.55;0.93;;;;;;;;;;5069859;28;20457;-62
2022/02/11 14:48:54;;;;;;;5.43;0.80;;;;;;;;;;5071314;28;20035;-63
2022/02/11 14:51:21;;;;;;;1.83;0.70;;;;;;;;;;5070514;28;20033;-68
2022/02/11 14:53:47;;;;;;;2.03;1.17;;;;;;;;;;5071516;28;20035;-64
2022/02/11 14:56:13;;;;;;;1.95;0.90;;;;;;;;;;5069594;28;20033;-62
2022/02/11 14:58:43;;;;;;;0.95;0.80;;;;;;;;;;5070019;28;20025;-66
2022/02/11 15:01:09;;;;;;;4.15;0.80;;;;;;;;;;5070935;28;20025;-60
2022/02/11 15:03:35;;;;;;;1.92;0.80;;;;;;;;;;5070240;28;20480;-62
2022/02/11 15:06:01;;;;;;;2.55;1.67;;;;;;;;;;5053419;28;20111;-62
2022/02/11 15:08:27;;;;;;;4.20;0.98;;;;;;;;;;5069994;28;20124;-63
2022/02/11 15:10:53;;;;;;;2.47;1.38;;;;;;;;;;5070970;28;20066;-62
2022/02/11 15:13:19;;;;;;;2.80;1.00;;;;;;;;;;5071015;28;20020;-66
2022/02/11 15:15:45;;;;;;;3.20;0.90;;;;;;;;;;5070908;28;20454;-61
2022/02/11 15:18:11;;;;;;;3.20;0.80;;;;;;;;;;5071082;28;20025;-59
2022/02/11 15:20:42;;;;;;;4.63;1.02;;;;;;;;;;5069169;28;20024;-66
2022/02/11 15:23:08;;;;;;;2.83;1.75;;;;;;;;;;5070951;28;20054;-64
2022/02/11 15:25:34;;;;;;;1.85;0.90;;;;;;;;;;5071893;28;20028;-62
2022/02/11 15:28:01;;;;;;;14.52;1.00;;;;;;;;;;5074615;28;20149;-69
2022/02/11 15:30:27;;;;;;;3.47;0.85;;;;;;;;;;5073762;28;20024;-65
2022/02/11 15:32:53;;;;;;;4.22;1.20;;;;;;;;;;5074407;28;20031;-70
2022/02/11 15:35:19;;;;;;;3.00;1.13;;;;;;;;;;5073919;28;20032;-69
2022/02/11 15:37:45;;;;;;;3.78;1.17;;;;;;;;;;5074068;28;20052;-65
2022/02/11 15:40:12;;;;;;;3.30;1.17;;;;;;;;;;5074402;28;20474;-64
2022/02/11 15:42:38;;;;;;;3.42;0.90;;;;;;;;;;5073406;28;20060;-64
2022/02/11 15:45:05;;;;;;;2.55;1.13;;;;;;;;;;5074172;28;20044;-65
2022/02/11 15:47:31;;;;;;;1.95;1.00;;;;;;;;;;5055186;28;20040;-65
2022/02/11 15:49:57;;;;;;;4.25;1.20;;;;;;;;;;5073853;28;20036;-64
2022/02/11 15:52:23;;;;;;;2.00;0.95;;;;;;;;;;5073330;28;20382;-71
2022/02/11 15:54:49;;;;;;;3.40;1.33;;;;;;;;;;5074183;28;20056;-64
2022/02/11 15:57:15;;;;;;;3.38;1.20;;;;;;;;;;5056904;28;20374;-64
2022/02/11 15:59:45;;;;;;;5.78;1.60;;;;;;;;;;5073656;28;20020;-63
2022/02/11 16:02:11;;;;;;;3.05;1.00;;;;;;;;;;5073366;28;20028;-64
2022/02/11 16:04:37;;;;;;;3.95;1.60;;;;;;;;;;5072938;28;20052;-63
2022/02/11 16:07:03;;;;;;;4.00;1.38;;;;;;;;;;5073775;28;20432;-66
2022/02/11 16:09:29;;;;;;;2.65;1.35;;;;;;;;;;5072987;28;20538;-64
2022/02/11 16:11:57;;;;;;;2.55;0.85;;;;;;;;;;5073615;28;20111;-64
2022/02/11 16:14:24;;;;;;;3.10;1.52;;;;;;;;;;5073214;28;20021;-69
2022/02/11 16:16:50;;;;;;;3.22;0.93;;;;;;;;;;5073941;28;20150;-65
2022/02/11 16:19:16;;;;;;;1.77;1.10;;;;;;;;;;5073878;28;20073;-63
2022/02/11 16:21:42;;;;;;;2.35;1.17;;;;;;;;;;5072185;28;20992;-62
2022/02/11 16:24:09;;;;;;;3.58;1.10;;;;;;;;;;5073694;28;20016;-62
2022/02/11 16:26:35;;;;;;;3.92;1.30;;;;;;;;;;5072849;28;20021;-61
2022/02/11 16:29:01;;;;;;;2.63;0.93;;;;;;;;;;5073668;28;20025;-64
2022/02/11 16:31:28;;;;;;;3.40;1.02;;;;;;;;;;5072679;28;20031;-63
2022/02/11 16:33:55;;;;;;;3.00;1.17;;;;;;;;;;5073467;28;20025;-64
2022/02/11 16:36:21;;;;;;;3.13;1.00;;;;;;;;;;5072183;28;20020;-72
2022/02/11 16:38:47;;;;;;;2.72;1.33;;;;;;;;;;5072627;28;20048;-67
2022/02/11 16:41:14;;;;;;;1.98;1.13;;;;;;;;;;5072653;28;20034;-69
2022/02/11 16:43:40;;;;;;;3.10;1.02;;;;;;;;;;5072442;28;20052;-75
2022/02/11 16:46:06;;;;;;;2.50;1.42;;;;;;;;;;5073033;28;20381;-68
2022/02/11 16:48:33;;;;;;;5.45;1.50;;;;;;;;;;5072137;28;20063;-67
2022/02/11 16:50:59;;;;;;;3.05;1.13;;;;;;;;;;5072839;28;20028;-68
2022/02/11 16:53:25;;;;;;;3.10;1.23;;;;;;;;;;5071814;28;20032;-67
2022/02/11 16:55:51;;;;;;;3.72;1.10;;;;;;;;;;5073069;28;20028;-66
2022/02/11 16:58:17;;;;;;;3.83;1.33;;;;;;;;;;5072646;28;20028;-65
2022/02/11 17:00:43;;;;;;;3.20;0.90;;;;;;;;;;5071688;28;20595;-66
2022/02/11 17:03:09;;;;;;;3.30;1.05;;;;;;;;;;5072483;28;20040;-68
2022/02/11 17:05:35;;;;;;;2.45;1.38;;;;;;;;;;5072085;28;20487;-68
2022/02/11 17:08:01;;;;;;;4.47;1.58;;;;;;;;;;5072603;28;20045;-69
2022/02/11 17:10:27;;;;;;;6.00;1.33;;;;;;;;;;5072053;28;20086;-68
2022/02/11 17:12:53;;;;;;;3.08;0.95;;;;;;;;;;5072536;28;20114;-68
2022/02/11 17:15:20;;;;;;;2.42;1.00;;;;;;;;;;5072558;28;20076;-73
2022/02/11 17:17:49;;;;;;;4.05;1.33;;;;;;;;;;5072280;28;20032;-73
2022/02/11 17:20:16;;;;;;;2.97;1.00;;;;;;;;;;5072720;28;20081;-63
2022/02/11 17:22:42;;;;;;;2.60;1.10;;;;;;;;;;5071149;28;20664;-67
2022/02/11 17:25:09;;;;;;;2.45;0.90;;;;;;;;;;5072303;28;20381;-66
2022/02/11 17:27:37;;;;;;;2.08;0.90;;;;;;;;;;5071524;28;20024;-73
2022/02/11 17:30:04;;;;;;;6.13;1.70;;;;;;;;;;5071943;28;20027;-72
2022/02/11 17:32:30;;;;;;;2.60;1.58;;;;;;;;;;5071513;28;20033;-69
2022/02/11 17:34:56;;;;;;;2.00;0.93;;;;;;;;;;5054482;28;20036;-69
2022/02/11 17:37:22;;;;;;;2.08;0.90;;;;;;;;;;5071906;28;20127;-64
2022/02/11 17:39:49;;;;;;;3.40;0.98;;;;;;;;;;5071425;28;20021;-69
2022/02/11 17:42:15;;;;;;;6.85;1.50;;;;;;;;;;5071980;28;20040;-77
2022/02/11 17:44:42;;;;;;;3.38;1.05;;;;;;;;;;5071320;28;20029;-71
2022/02/11 17:47:08;;;;;;;3.30;0.93;;;;;;;;;;5071982;28;20033;-67
2022/02/11 17:49:35;;;;;;;3.10;0.90;;;;;;;;;;5070533;28;20032;-65
2022/02/11 17:52:01;;;;;;;2.10;0.82;;;;;;;;;;5071484;28;20032;-75
2022/02/11 17:54:28;;;;;;;2.35;0.77;;;;;;;;;;5071214;28;20143;-68
2022/02/11 17:56:54;;;;;;;3.92;1.55;;;;;;;;;;5072150;28;20024;-73
2022/02/11 17:59:21;;;;;;;4.80;1.65;;;;;;;;;;5071745;28;20016;-69
2022/02/11 18:01:47;;;;;;;2.05;1.55;;;;;;;;;;5071122;28;20497;-72
2022/02/11 18:04:15;;;;;;;4.15;1.30;;;;;;;;;;5071882;28;20052;-71
2022/02/11 18:06:41;;;;;;;3.78;1.25;;;;;;;;;;5070518;28;20028;-71
2022/02/11 18:09:08;;;;;;;2.30;0.82;;;;;;;;;;5071168;28;20039;-71
2022/02/11 18:11:34;;;;;;;4.30;1.60;;;;;;;;;;5070601;28;20594;-76
2022/02/11 18:14:02;;;;;;;2.38;0.90;;;;;;;;;;5071359;28;20036;-74
2022/02/11 18:16:29;;;;;;;2.05;0.90;;;;;;;;;;5067411;28;20021;-70
2022/02/11 18:18:55;;;;;;;3.97;1.02;;;;;;;;;;5071317;28;20112;-76
2022/02/11 18:21:21;;;;;;;4.05;1.38;;;;;;;;;;5069503;28;20028;-77
2022/02/11 18:23:48;;;;;;;4.30;1.50;;;;;;;;;;5070650;28;20020;-78
2022/02/11 18:26:16;;;;;;;2.38;1.10;;;;;;;;;;5071446;28;20024;-77